KSVH/SVH METAR and TAF weather

Enter ICAO airport designator
Station Type Date Time Source
KSVH METAR 2021/07/28 04:15 UTC NOAA

KSVH 280415Z AUTO 25005KT 10SM CLR 22/20 A3002 RMK AO2 T02180197


Station Type Date Time Source
KSVH Decoded METAR 2021/07/28 04:15 UTC NOAA

Statesville, Statesville Municipal Airport, NC, United States (KSVH) 35-45-55N 080-57-24W
Jul 28, 2021 - 12:15 AM EDT / 2021.07.28 0415 UTC
Wind: from the WSW (250 degrees) at 6 MPH (5 KT):0
Visibility: 10 mile(s):0
Sky conditions: clear
Temperature: 71.2 F (21.8 C)
Dew Point: 67.5 F (19.7 C)
Relative Humidity: 87%
Pressure (altimeter): 30.02 in. Hg (1016 hPa)
ob: KSVH 280415Z AUTO 25005KT 10SM CLR 22/20 A3002 RMK AO2 T02180197
cycle: 4

Station Type Date Time Source
KSVH TAF UTC NOAA

Error!

Example: see airport list